Sign in

Advertising

Info

Aviation weather - KDAB

METAR KDAB 282153Z 04006KT 10SM FEW022 SCT050 SCT060 BKN250 28/22 A2997 RMK AO2 LTG DSNT SE AND S SLP147 CB DSNT NE SE-S T02830217

TAF KDAB 282123Z 2821/2918 VRB04KT P6SM FEW025 SCT050 BKN250 FM290100 24003KT P6SM SCT060 BKN120 FM291400 22007KT P6SM SCT025

Aviation weather from ADDS. Re-check weather before flight.

-